Time;durP1;ratioP1;P1;durP2;ratioP2;P2;SDS_P1;SDS_P2;PMS_P1;PMS_P2;Temp;Humidity;BMP_temperature;BMP_pressure;BME280_temperature;BME280_humidity;BME280_pressure;Samples;Min_cycle;Max_cycle;Signal;HPM_P1;HPM_P2
2021/04/27 02:04:54;;;;;;;14.28;11.65;;;;;;;-1.35;100.00;99256.02;1679312;84;21066;-67
2021/04/27 05:57:23;;;;;;;4.65;4.22;;;;;;;4.82;100.00;99293.53;1739552;80;94424;-74
2021/04/27 07:24:32;;;;;;;3.75;3.15;;;;;;;7.69;70.53;99292.93;1595647;88;21183;-67
2021/04/27 07:38:43;;;;;;;6.60;2.55;;;;;;;9.08;63.85;99292.26;1628650;82;21190;-68
2021/04/27 08:56:45;;;;;;;3.47;2.30;;;;;;;9.04;48.37;99305.85;1659215;85;21243;-68
2021/04/27 09:54:13;;;;;;;;;;;;;;;;;;;;;
2021/04/27 12:04:30;;;;;;;3.08;2.30;;;;;;;8.53;41.72;99241.82;1681119;84;21533;-66
2021/04/27 12:07:23;;;;;;;3.90;2.72;;;;;;;8.59;41.37;99241.61;1680964;85;21164;-68
2021/04/27 12:11:13;;;;;;;4.20;2.98;;;;;;;8.45;42.85;99240.38;1512066;93;21132;-67
2021/04/27 12:14:30;;;;;;;2.25;2.05;;;;;;;8.48;44.75;99237.20;1776183;79;22713;-68
2021/04/27 12:17:53;;;;;;;12.05;4.75;;;;;;;8.42;46.86;99240.05;1719497;81;21047;-66
2021/04/27 12:37:46;;;;;;;1.95;1.60;;;;;;;8.09;46.96;99245.19;1549596;92;21585;-67
2021/04/27 12:41:54;;;;;;;3.77;2.20;;;;;;;8.29;45.62;99233.97;1551144;91;20994;-67
2021/04/27 13:20:33;;;;;;;;;;;;;;;;;;;;;
2021/04/27 14:52:25;;;;;;;7.15;4.00;;;;;;;6.95;63.79;99232.83;1664717;85;20999;-66
2021/04/27 14:55:16;;;;;;;4.70;3.87;;;;;;;6.78;65.09;99230.09;1826630;77;27852;-67
2021/04/27 14:57:47;;;;;;;6.22;3.25;;;;;;;6.70;65.50;99228.34;1786476;79;21039;-66
2021/04/27 15:07:57;;;;;;;6.33;4.53;;;;;;;6.67;63.82;99239.48;1681944;84;21461;-65
2021/04/27 15:10:33;;;;;;;6.37;3.45;;;;;;;6.70;64.87;99238.48;1881377;76;22703;-64
2021/04/27 15:13:49;;;;;;;3.30;3.00;;;;;;;6.65;62.23;99237.85;1848032;77;20912;-65
2021/04/27 15:21:09;;;;;;;6.30;3.80;;;;;;;6.51;60.73;99241.02;1768415;81;20935;-67
2021/04/27 15:24:36;;;;;;;5.87;3.62;;;;;;;6.32;64.10;99241.66;1675478;85;21129;-66
2021/04/27 15:27:12;;;;;;;33.02;16.60;;;;;;;6.22;61.39;99235.09;1832873;78;22041;-67
2021/04/27 15:29:43;;;;;;;16.02;9.15;;;;;;;6.38;59.54;99230.09;1817654;78;21003;-68
2021/04/27 15:32:13;;;;;;;146.25;84.45;;;;;;;6.49;57.85;99226.57;1784259;79;21585;-65
2021/04/27 15:38:46;;;;;;;3.60;3.10;;;;;;;6.64;60.55;99222.11;1876951;76;22790;-69
2021/04/27 15:41:14;;;;;;;7.25;6.55;;;;;;;6.43;59.11;99215.00;1813701;79;20940;-64
2021/04/27 15:43:42;;;;;;;7.37;4.60;;;;;;;6.25;59.45;99215.66;1739867;81;21893;-63
2021/04/27 15:46:11;;;;;;;20.07;9.57;;;;;;;6.10;60.68;99218.80;1751498;80;21047;-63
2021/04/27 15:48:41;;;;;;;16.57;6.12;;;;;;;5.97;61.09;99217.19;1741597;81;21387;-66
2021/04/27 16:05:53;;;;;;;8.58;5.08;;;;;;;5.67;64.50;99238.56;1666257;85;21445;-69
2021/04/27 16:13:10;;;;;;;78.75;44.05;;;;;;;5.68;66.71;99243.64;1591154;90;21062;-67
2021/04/27 16:20:21;;;;;;;10.40;9.33;;;;;;;5.70;64.60;99244.23;1507734;93;21631;-69
2021/04/27 19:03:05;;;;;;;12.63;8.00;;;;;;;1.71;82.60;99332.03;1840984;77;28143;-67
2021/04/27 19:38:39;;;;;;;65.42;29.52;;;;;;;0.61;100.00;99345.27;1621366;87;21095;-67
2021/04/27 19:56:23;;;;;;;49.25;21.68;;;;;;;0.55;100.00;99365.84;1760370;81;21030;-68
2021/04/27 20:35:33;;;;;;;145.28;56.60;;;;;;;-0.76;100.00;99388.98;1789910;79;20984;-72
2021/04/27 20:38:07;;;;;;;122.67;53.55;;;;;;;-0.76;100.00;99392.94;1612418;89;21113;-70
2021/04/27 20:40:40;;;;;;;120.85;50.67;;;;;;;-0.72;100.00;99394.69;1635931;87;21248;-71
2021/04/27 20:43:22;;;;;;;102.35;46.20;;;;;;;-0.73;100.00;99395.20;1622797;88;22739;-71
2021/04/27 20:45:50;;;;;;;108.70;44.48;;;;;;;-0.73;100.00;99397.02;1638826;87;21662;-70
2021/04/27 20:48:19;;;;;;;84.92;39.63;;;;;;;-0.71;100.00;99397.16;1650805;86;21042;-70
2021/04/27 20:50:50;;;;;;;73.00;35.08;;;;;;;-0.73;100.00;99400.47;1652678;85;21188;-71
2021/04/27 20:53:21;;;;;;;72.60;33.83;;;;;;;-0.80;100.00;99404.84;1659769;86;21106;-71
2021/04/27 20:55:52;;;;;;;79.75;33.23;;;;;;;-0.78;100.00;99409.42;1659443;86;21533;-72
2021/04/27 20:58:22;;;;;;;69.40;31.30;;;;;;;-0.80;100.00;99409.30;1659445;86;21209;-71
2021/04/27 21:00:50;;;;;;;67.85;30.30;;;;;;;-0.84;100.00;99411.97;1659083;86;21061;-71
2021/04/27 21:03:19;;;;;;;53.08;26.42;;;;;;;-0.92;100.00;99417.66;1659525;86;21025;-71
2021/04/27 21:05:47;;;;;;;56.33;28.25;;;;;;;-0.92;100.00;99420.28;1659297;86;21156;-71
2021/04/27 21:08:14;;;;;;;55.38;27.98;;;;;;;-0.89;100.00;99420.42;1659257;85;21196;-72
2021/04/27 21:10:44;;;;;;;53.07;25.77;;;;;;;-0.90;100.00;99421.44;1659124;86;21074;-71
2021/04/27 21:13:12;;;;;;;38.98;19.80;;;;;;;-0.90;100.00;99421.44;1658662;86;21849;-71
2021/04/27 21:15:41;;;;;;;44.85;23.60;;;;;;;-0.93;100.00;99426.57;1658684;86;28665;-72
2021/04/27 21:18:14;;;;;;;76.33;30.10;;;;;;;-0.87;100.00;99428.97;1658901;86;21089;-73
2021/04/27 21:20:41;;;;;;;57.90;28.57;;;;;;;-0.95;100.00;99430.39;1658840;86;21372;-72
2021/04/27 21:23:10;;;;;;;59.10;28.95;;;;;;;-1.10;100.00;99439.10;1658857;86;21520;-72
2021/04/27 21:25:38;;;;;;;64.35;31.07;;;;;;;-1.20;100.00;99439.88;1658990;86;21110;-73
2021/04/27 21:28:05;;;;;;;51.18;26.82;;;;;;;-1.26;100.00;99433.17;1659278;86;21216;-72
2021/04/27 21:30:34;;;;;;;43.15;23.05;;;;;;;-1.33;100.00;99445.73;1659421;86;20972;-72
2021/04/27 21:33:05;;;;;;;45.80;27.73;;;;;;;-1.45;100.00;99439.77;1659562;86;21535;-72
2021/04/27 21:35:34;;;;;;;45.83;23.00;;;;;;;-1.45;100.00;99439.77;1659517;86;21390;-71
2021/04/27 21:38:02;;;;;;;46.45;23.20;;;;;;;-1.51;100.00;99437.36;1653539;84;20963;-71
2021/04/27 21:40:32;;;;;;;45.43;20.97;;;;;;;-1.49;100.00;99443.75;1652871;86;20979;-72
2021/04/27 21:43:00;;;;;;;42.33;22.45;;;;;;;-1.46;100.00;99446.05;1653762;86;20934;-72
2021/04/27 21:45:32;;;;;;;42.27;19.98;;;;;;;-1.57;100.00;99450.75;1655099;86;21284;-72
2021/04/27 21:48:00;;;;;;;38.13;18.60;;;;;;;-1.60;100.00;99450.27;1654883;86;20970;-72
2021/04/27 21:50:28;;;;;;;39.78;19.65;;;;;;;-1.66;100.00;99441.27;1655170;86;21018;-72
2021/04/27 21:52:57;;;;;;;32.80;18.77;;;;;;;-1.69;100.00;99449.53;1655134;86;21592;-72
2021/04/27 21:55:25;;;;;;;36.55;18.98;;;;;;;-1.74;100.00;99450.53;1655034;86;21006;-71
2021/04/27 21:57:52;;;;;;;33.35;19.17;;;;;;;-1.79;100.00;99452.40;1655086;86;22212;-72
2021/04/27 22:00:35;;;;;;;36.35;17.65;;;;;;;-1.83;100.00;99456.88;1655091;86;21512;-71
2021/04/27 22:03:06;;;;;;;27.55;17.05;;;;;;;-1.95;100.00;99455.95;1655065;86;20943;-72
2021/04/27 22:05:35;;;;;;;28.25;16.40;;;;;;;-1.86;100.00;99462.47;1654926;86;20938;-72
2021/04/27 22:08:04;;;;;;;20.85;14.10;;;;;;;-1.91;100.00;99460.38;1654988;86;20938;-72
2021/04/27 22:10:35;;;;;;;28.77;15.90;;;;;;;-1.98;100.00;99464.20;1654989;86;21219;-72
2021/04/27 22:13:10;;;;;;;29.90;17.85;;;;;;;-2.03;100.00;99467.86;1654778;86;20967;-72
2021/04/27 22:15:41;;;;;;;26.07;16.02;;;;;;;-2.10;100.00;99468.23;1654857;86;20971;-72
2021/04/27 22:18:10;;;;;;;36.93;16.90;;;;;;;-2.18;100.00;99466.94;1654960;86;21616;-71
2021/04/27 22:20:41;;;;;;;31.02;17.27;;;;;;;-2.26;100.00;99470.94;1628419;86;21232;-72
2021/04/27 22:23:09;;;;;;;54.95;16.62;;;;;;;-2.34;100.00;99470.49;1654958;86;22142;-72
2021/04/27 22:25:40;;;;;;;27.37;16.48;;;;;;;-2.28;100.00;99467.66;1655024;86;21619;-72
2021/04/27 22:28:14;;;;;;;31.25;19.05;;;;;;;-2.31;100.00;99466.20;1654970;86;21600;-72
2021/04/27 22:30:44;;;;;;;36.30;18.77;;;;;;;-2.30;100.00;99470.95;1654865;86;20986;-73
2021/04/27 22:33:13;;;;;;;30.25;17.77;;;;;;;-2.27;100.00;99475.39;1655112;86;25376;-72
2021/04/27 22:35:41;;;;;;;50.15;24.95;;;;;;;-2.20;100.00;99472.39;1654857;86;21292;-74
2021/04/27 22:38:11;;;;;;;26.27;16.45;;;;;;;-2.17;100.00;99473.86;1655856;85;21069;-73
2021/04/27 22:40:39;;;;;;;23.80;14.60;;;;;;;-2.22;100.00;99476.19;1640337;87;21599;-72
2021/04/27 22:43:07;;;;;;;38.75;17.85;;;;;;;-2.22;100.00;99477.00;1640387;87;20977;-73
2021/04/27 22:45:36;;;;;;;;;;;;;;;-2.19;100.00;99483.72;1665450;86;21588;-73
2021/04/27 22:48:08;;;;;;;46.63;24.70;;;;;;;-2.19;100.00;99483.72;1664744;86;26771;-74
2021/04/27 22:50:39;;;;;;;88.58;37.23;;;;;;;-2.25;100.00;99481.30;1669545;85;21021;-74
2021/04/27 22:53:08;;;;;;;87.10;39.70;;;;;;;-2.31;100.00;99485.10;1669042;85;21602;-72
2021/04/27 22:55:37;;;;;;;81.87;36.50;;;;;;;-2.40;100.00;99489.09;1641829;86;21647;-72
2021/04/27 22:58:05;;;;;;;73.72;34.73;;;;;;;-2.40;100.00;99489.09;1668681;85;21101;-73
2021/04/27 23:00:43;;;;;;;55.00;26.95;;;;;;;-2.44;100.00;99485.66;1668574;85;22116;-74
2021/04/27 23:03:11;;;;;;;;;;;;;;;-2.45;100.00;99482.69;1670981;86;20958;-73
2021/04/27 23:05:40;;;;;;;;;;;;;;;-2.43;100.00;99492.05;1670981;86;20215;-73
2021/04/27 23:08:08;;;;;;;;;;;;;;;-2.41;100.00;99487.44;1670979;86;20259;-73
2021/04/27 23:10:37;;;;;;;;;;;;;;;-2.46;100.00;99489.77;1671070;86;20333;-73
2021/04/27 23:13:06;;;;;;;;;;;;;;;-2.46;100.00;99498.16;1671066;86;21208;-73
2021/04/27 23:15:34;;;;;;;;;;;;;;;-2.48;100.00;99492.23;1670974;86;20156;-73
2021/04/27 23:18:04;;;;;;;;;;;;;;;-2.56;100.00;99496.23;1670938;86;20136;-73
2021/04/27 23:20:34;;;;;;;;;;;;;;;-2.63;100.00;99492.95;1671019;85;20163;-73
2021/04/27 23:23:02;;;;;;;;;;;;;;;-2.70;100.00;99494.61;1644650;86;20239;-73
2021/04/27 23:25:30;;;;;;;;;;;;;;;-2.76;100.00;99503.69;1671040;86;21454;-73
2021/04/27 23:27:58;;;;;;;;;;;;;;;-2.85;100.00;99494.99;1670974;85;20219;-73
2021/04/27 23:30:29;;;;;;;;;;;;;;;-2.91;100.00;99508.31;1670993;85;20199;-73
2021/04/27 23:33:00;;;;;;;;;;;;;;;-2.92;100.00;99496.16;1670983;86;20251;-73
2021/04/27 23:35:27;;;;;;;;;;;;;;;-2.98;100.00;99495.53;1671019;86;20565;-74
2021/04/27 23:37:55;;;;;;;;;;;;;;;-3.06;100.00;99498.18;1665681;84;21193;-73
2021/04/27 23:40:24;;;;;;;;;;;;;;;-3.08;100.00;99498.83;1659009;86;20145;-74
2021/04/27 23:42:53;;;;;;;;;;;;;;;-2.97;100.00;99497.16;1657340;86;20523;-74
2021/04/27 23:45:21;;;;;;;;;;;;;;;-2.85;100.00;99505.00;1657430;86;20141;-73
2021/04/27 23:47:49;;;;;;;;;;;;;;;-2.87;100.00;99501.72;1631403;86;20153;-74
2021/04/27 23:50:21;;;;;;;;;;;;;;;-2.94;100.00;99504.72;1631449;86;21304;-74
2021/04/27 23:52:50;;;;;;;;;;;;;;;-3.03;100.00;99507.84;1657359;86;20162;-74
2021/04/27 23:55:19;;;;;;;;;;;;;;;-3.05;100.00;99509.00;1631489;86;20514;-74
2021/04/27 23:57:47;;;;;;;;;;;;;;;-3.02;100.00;99504.22;1657326;86;20129;-74
